Time;durP1;ratioP1;P1;durP2;ratioP2;P2;SDS_P1;SDS_P2;PMS_P1;PMS_P2;Temp;Humidity;BMP_temperature;BMP_pressure;BME280_temperature;BME280_humidity;BME280_pressure;Samples;Min_cycle;Max_cycle;Signal;HPM_P1;HPM_P2
2023/04/30 00:01:14;;;;;;;1.58;0.30;;;16.60;99.90;;;;;;5096100;28;20212;-75
2023/04/30 00:03:45;;;;;;;0.43;0.30;;;16.60;99.90;;;;;;5085904;28;20205;-75
2023/04/30 00:06:16;;;;;;;0.20;0.20;;;16.70;99.90;;;;;;5094932;28;20199;-76
2023/04/30 00:08:47;;;;;;;0.28;0.20;;;16.80;99.90;;;;;;5097333;28;20661;-75
2023/04/30 00:11:19;;;;;;;0.88;0.20;;;17.00;99.90;;;;;;5094475;28;20660;-76
2023/04/30 00:13:52;;;;;;;9.07;8.13;;;17.00;99.90;;;;;;5092961;28;20581;-76
2023/04/30 00:16:23;;;;;;;0.50;0.40;;;17.00;99.90;;;;;;5089798;28;20192;-76
2023/04/30 00:18:54;;;;;;;0.85;0.43;;;16.80;99.90;;;;;;5085715;28;20184;-77
2023/04/30 00:21:25;;;;;;;0.38;0.38;;;16.70;99.90;;;;;;5082129;28;20211;-76
2023/04/30 00:23:56;;;;;;;1.10;0.47;;;16.60;99.90;;;;;;5081248;28;20215;-76
2023/04/30 00:26:27;;;;;;;0.88;0.40;;;16.50;99.90;;;;;;5093429;28;20200;-76
2023/04/30 00:29:00;;;;;;;0.30;0.30;;;16.60;99.90;;;;;;5084994;28;20201;-78
2023/04/30 00:31:31;;;;;;;1.85;0.30;;;16.70;99.90;;;;;;5071728;28;20196;-77
2023/04/30 00:34:02;;;;;;;0.30;0.30;;;16.60;99.90;;;;;;5081449;28;20184;-78
2023/04/30 00:36:33;;;;;;;0.65;0.20;;;16.70;99.90;;;;;;5090814;28;20207;-76
2023/04/30 00:39:04;;;;;;;0.47;0.30;;;16.80;99.90;;;;;;5094720;28;20197;-77
2023/04/30 00:41:36;;;;;;;0.30;0.30;;;16.90;99.90;;;;;;5094487;28;20683;-77
2023/04/30 00:44:09;;;;;;;0.20;0.20;;;16.90;99.90;;;;;;5094902;28;20192;-77
2023/04/30 00:46:41;;;;;;;0.30;0.20;;;17.00;99.90;;;;;;5097482;28;20648;-77
2023/04/30 00:49:12;;;;;;;0.50;0.30;;;17.00;99.90;;;;;;5094304;28;20631;-77
2023/04/30 00:51:44;;;;;;;0.95;0.30;;;17.00;99.90;;;;;;5097817;28;20193;-77
2023/04/30 00:54:15;;;;;;;0.30;0.30;;;17.00;99.90;;;;;;5086760;28;20197;-77
2023/04/30 00:56:46;;;;;;;0.50;0.30;;;17.00;99.90;;;;;;5093876;28;20199;-77
2023/04/30 00:59:20;;;;;;;0.47;0.30;;;17.00;99.90;;;;;;5091345;28;20574;-77
2023/04/30 01:01:51;;;;;;;0.70;0.40;;;17.10;99.90;;;;;;5094158;28;20240;-76
2023/04/30 01:04:22;;;;;;;0.90;0.30;;;17.10;99.90;;;;;;5086391;28;20667;-77
2023/04/30 01:06:53;;;;;;;0.85;0.50;;;17.20;99.90;;;;;;5091537;28;20196;-79
2023/04/30 01:09:24;;;;;;;0.30;0.30;;;17.40;99.90;;;;;;5094228;28;20597;-78
2023/04/30 01:12:05;;;;;;;0.30;0.30;;;17.50;99.90;;;;;;5094135;28;20189;-76
2023/04/30 01:14:52;;;;;;;0.30;0.30;;;17.50;99.90;;;;;;5089882;28;20200;-79
2023/04/30 01:17:30;;;;;;;1.10;0.50;;;17.50;99.90;;;;;;5093148;28;20200;-75
2023/04/30 01:20:03;;;;;;;0.38;0.32;;;17.50;99.90;;;;;;5092213;28;20219;-77
2023/04/30 01:22:48;;;;;;;0.57;0.30;;;17.40;99.90;;;;;;5075783;28;20565;-78
2023/04/30 01:25:43;;;;;;;0.30;0.30;;;17.20;99.90;;;;;;5084157;28;20197;-78
2023/04/30 01:28:18;;;;;;;0.95;0.25;;;17.10;99.90;;;;;;5082414;28;20212;-77
2023/04/30 01:30:50;;;;;;;0.50;0.40;;;17.20;99.90;;;;;;5083204;28;20199;-77
2023/04/30 01:33:21;;;;;;;0.40;0.30;;;17.20;99.90;;;;;;5084299;28;20215;-76
2023/04/30 01:36:28;;;;;;;0.82;0.20;;;17.30;99.90;;;;;;5083016;28;20203;-76
2023/04/30 01:39:21;;;;;;;0.57;0.30;;;17.30;99.90;;;;;;5083209;28;20199;-78
2023/04/30 01:42:01;;;;;;;0.45;0.30;;;17.40;99.90;;;;;;5098551;28;20264;-77
2023/04/30 01:44:56;;;;;;;0.20;0.20;;;17.40;99.90;;;;;;5073364;28;20204;-76
2023/04/30 01:47:41;;;;;;;1.33;0.40;;;17.50;99.90;;;;;;5087579;28;20207;-77
2023/04/30 01:50:22;;;;;;;0.38;0.30;;;17.50;99.90;;;;;;5094342;28;20246;-77
2023/04/30 01:52:56;;;;;;;0.43;0.20;;;17.40;99.90;;;;;;5104618;28;20188;-77
2023/04/30 01:55:34;;;;;;;0.95;0.20;;;17.30;99.90;;;;;;5093475;28;20189;-77
2023/04/30 01:58:09;;;;;;;0.50;0.30;;;17.30;99.90;;;;;;5108747;28;20203;-77
2023/04/30 02:00:42;;;;;;;0.30;0.20;;;17.20;99.90;;;;;;5113561;28;20662;-77
2023/04/30 02:03:13;;;;;;;0.88;0.20;;;17.10;99.90;;;;;;5113521;28;20599;-78
2023/04/30 02:05:44;;;;;;;0.25;0.20;;;17.00;99.90;;;;;;5104502;28;20192;-76
2023/04/30 02:08:15;;;;;;;0.30;0.25;;;16.90;99.90;;;;;;5101537;28;20188;-76
2023/04/30 02:10:46;;;;;;;2.75;2.15;;;17.10;99.90;;;;;;5079615;28;20212;-79
2023/04/30 02:13:17;;;;;;;1.40;1.30;;;17.30;99.90;;;;;;5073349;28;20189;-76
2023/04/30 02:15:50;;;;;;;2.03;0.20;;;17.70;99.90;;;;;;5087395;28;20196;-77
2023/04/30 02:18:21;;;;;;;0.82;0.30;;;17.80;99.90;;;;;;5096861;28;20184;-77
2023/04/30 02:20:52;;;;;;;0.80;0.30;;;18.00;99.90;;;;;;5098236;28;20215;-79
2023/04/30 02:23:23;;;;;;;0.90;0.30;;;18.00;99.90;;;;;;5077035;28;20193;-77
2023/04/30 02:25:54;;;;;;;0.98;0.20;;;17.90;99.90;;;;;;5099723;28;20194;-77
2023/04/30 02:28:25;;;;;;;0.20;0.20;;;17.80;99.90;;;;;;5105663;28;20191;-76
2023/04/30 02:30:58;;;;;;;0.13;0.13;;;17.80;99.90;;;;;;5096981;28;20192;-77
2023/04/30 02:33:29;;;;;;;0.32;0.20;;;17.90;99.90;;;;;;5097432;28;20191;-76
2023/04/30 02:36:02;;;;;;;0.57;0.30;;;18.10;99.90;;;;;;5094985;28;20196;-77
2023/04/30 02:38:33;;;;;;;1.05;0.20;;;18.30;99.90;;;;;;5096934;28;20192;-78
2023/04/30 02:41:04;;;;;;;0.22;0.20;;;18.50;99.90;;;;;;5096893;28;20227;-77
2023/04/30 02:43:35;;;;;;;0.85;0.25;;;18.60;99.90;;;;;;5096986;28;20189;-77
2023/04/30 02:46:08;;;;;;;0.10;0.10;;;18.70;99.90;;;;;;5096701;28;20199;-78
2023/04/30 02:48:39;;;;;;;0.10;0.10;;;18.80;99.90;;;;;;5096884;28;20535;-76
2023/04/30 02:51:10;;;;;;;0.38;0.20;;;18.80;99.90;;;;;;5107710;28;20283;-77
2023/04/30 02:53:41;;;;;;;0.10;0.10;;;18.80;99.90;;;;;;5117231;28;20195;-76
2023/04/30 02:56:12;;;;;;;0.17;0.17;;;18.80;99.90;;;;;;5117359;28;20195;-76
2023/04/30 02:58:43;;;;;;;0.30;0.30;;;18.90;99.90;;;;;;5117217;28;20198;-76
2023/04/30 03:01:17;;;;;;;0.25;0.20;;;19.00;99.90;;;;;;5116612;28;20243;-77
2023/04/30 03:03:48;;;;;;;0.52;0.20;;;19.00;99.90;;;;;;5116760;28;20203;-77
2023/04/30 03:06:19;;;;;;;0.85;0.28;;;19.00;99.90;;;;;;5096843;28;20192;-77
2023/04/30 03:08:50;;;;;;;0.90;0.28;;;18.90;99.90;;;;;;5096563;28;20199;-78
2023/04/30 03:11:21;;;;;;;0.10;0.10;;;19.00;99.90;;;;;;5096381;28;20200;-77
2023/04/30 03:13:52;;;;;;;0.13;0.13;;;19.20;99.90;;;;;;5096143;28;20188;-77
2023/04/30 03:16:25;;;;;;;0.20;0.20;;;19.20;99.90;;;;;;5096360;28;20188;-77
2023/04/30 03:18:56;;;;;;;0.80;0.35;;;19.20;99.90;;;;;;5106259;28;20183;-76
2023/04/30 03:21:27;;;;;;;0.10;0.10;;;19.20;99.90;;;;;;5112968;28;20226;-78
2023/04/30 03:23:58;;;;;;;0.28;0.20;;;19.20;99.90;;;;;;5092806;28;20211;-76
2023/04/30 03:26:29;;;;;;;0.88;0.20;;;19.10;99.90;;;;;;5095627;28;20199;-76
2023/04/30 03:29:00;;;;;;;1.33;0.30;;;19.30;99.90;;;;;;5084633;28;20278;-77
2023/04/30 03:31:34;;;;;;;0.22;0.20;;;19.40;99.90;;;;;;5086718;28;20249;-78
2023/04/30 03:34:05;;;;;;;0.57;0.30;;;19.40;99.90;;;;;;5083270;28;20196;-78
2023/04/30 03:36:36;;;;;;;0.28;0.28;;;19.40;99.90;;;;;;5099858;28;20218;-77
2023/04/30 03:39:08;;;;;;;0.20;0.20;;;19.50;99.90;;;;;;5096039;28;20207;-76
2023/04/30 03:41:39;;;;;;;0.45;0.30;;;19.50;99.90;;;;;;5106174;28;20693;-77
2023/04/30 03:44:14;;;;;;;0.20;0.20;;;19.50;99.90;;;;;;5099571;28;20200;-78
2023/04/30 03:46:47;;;;;;;0.60;0.20;;;19.60;99.90;;;;;;5092976;28;20627;-75
2023/04/30 03:49:18;;;;;;;0.60;0.30;;;19.40;99.90;;;;;;5093792;28;20204;-75
2023/04/30 03:51:49;;;;;;;0.20;0.20;;;19.20;99.90;;;;;;5098877;28;20205;-75
2023/04/30 03:54:20;;;;;;;0.75;0.20;;;19.20;99.90;;;;;;5096561;28;20193;-76
2023/04/30 03:56:51;;;;;;;0.90;0.30;;;19.30;99.90;;;;;;5095004;28;20208;-77
2023/04/30 03:59:22;;;;;;;0.10;0.10;;;19.40;99.90;;;;;;5085331;28;20196;-76
2023/04/30 04:01:55;;;;;;;0.10;0.10;;;19.50;99.90;;;;;;5091684;28;20248;-76
2023/04/30 04:04:26;;;;;;;0.20;0.20;;;19.50;99.90;;;;;;5095362;28;20640;-76
2023/04/30 04:06:57;;;;;;;0.68;0.30;;;19.60;99.90;;;;;;5095439;28;20200;-75
2023/04/30 04:09:28;;;;;;;0.20;0.20;;;19.50;99.90;;;;;;5095399;28;20188;-76
2023/04/30 04:12:00;;;;;;;0.20;0.20;;;19.60;99.90;;;;;;5081633;28;20205;-76
2023/04/30 04:14:31;;;;;;;0.30;0.20;;;19.70;99.90;;;;;;5080031;28;20223;-77
2023/04/30 04:17:05;;;;;;;0.20;0.20;;;19.80;99.90;;;;;;5102539;28;20203;-76
2023/04/30 04:19:36;;;;;;;0.30;0.30;;;19.90;99.90;;;;;;5082061;28;20193;-76
2023/04/30 04:22:07;;;;;;;0.32;0.30;;;20.00;99.90;;;;;;5090593;28;20212;-76
2023/04/30 04:24:38;;;;;;;0.20;0.20;;;20.00;99.90;;;;;;5078883;28;20204;-77
2023/04/30 04:27:09;;;;;;;0.20;0.20;;;19.80;99.90;;;;;;5082248;28;20192;-78
2023/04/30 04:29:40;;;;;;;0.28;0.22;;;19.70;99.90;;;;;;5088981;28;20199;-78
2023/04/30 04:32:13;;;;;;;0.30;0.22;;;19.50;99.90;;;;;;5078996;28;20200;-78
2023/04/30 04:34:44;;;;;;;0.30;0.30;;;19.20;99.90;;;;;;5074687;28;20198;-76
2023/04/30 04:37:16;;;;;;;0.20;0.20;;;19.10;99.90;;;;;;5079138;28;20230;-74
2023/04/30 04:39:47;;;;;;;0.20;0.20;;;19.10;99.90;;;;;;5094395;28;20188;-77
2023/04/30 04:42:19;;;;;;;0.13;0.13;;;19.20;99.90;;;;;;5094322;28;20575;-77
2023/04/30 04:44:50;;;;;;;1.33;0.20;;;19.30;99.90;;;;;;5094665;28;20185;-76
2023/04/30 04:47:23;;;;;;;0.10;0.10;;;19.40;99.90;;;;;;5094816;28;20199;-77
2023/04/30 04:49:54;;;;;;;0.10;0.10;;;19.40;99.90;;;;;;5093994;28;20211;-77
2023/04/30 04:52:25;;;;;;;0.20;0.20;;;19.20;99.90;;;;;;5090638;28;20192;-78
2023/04/30 04:54:56;;;;;;;0.17;0.17;;;19.20;99.90;;;;;;5094492;28;20192;-77
2023/04/30 04:57:27;;;;;;;0.28;0.28;;;19.10;99.90;;;;;;5094465;28;20199;-77
2023/04/30 04:59:58;;;;;;;0.47;0.20;;;19.00;99.90;;;;;;5095614;28;20199;-77
2023/04/30 05:02:31;;;;;;;0.20;0.20;;;19.00;99.90;;;;;;5098777;28;20232;-79
2023/04/30 05:05:02;;;;;;;0.43;0.25;;;18.90;99.90;;;;;;5089429;28;20204;-77
2023/04/30 05:07:33;;;;;;;0.20;0.20;;;18.80;99.90;;;;;;5076712;28;20239;-77
2023/04/30 05:10:05;;;;;;;0.20;0.20;;;18.80;99.90;;;;;;5078269;28;20562;-77
2023/04/30 05:12:36;;;;;;;0.75;0.30;;;18.70;99.90;;;;;;5102822;28;20203;-77
2023/04/30 05:15:07;;;;;;;0.38;0.30;;;18.60;99.90;;;;;;5100571;28;20192;-77
2023/04/30 05:17:40;;;;;;;0.20;0.20;;;18.60;99.90;;;;;;5075482;28;20204;-77
2023/04/30 05:20:13;;;;;;;0.50;0.30;;;18.60;99.90;;;;;;5099189;28;20192;-78
2023/04/30 05:22:44;;;;;;;0.30;0.30;;;18.60;99.90;;;;;;5093316;28;20222;-77
2023/04/30 05:25:15;;;;;;;0.20;0.20;;;18.70;99.90;;;;;;5088361;28;20215;-78
2023/04/30 05:27:46;;;;;;;0.20;0.20;;;18.70;99.90;;;;;;5076588;28;20208;-77
2023/04/30 05:30:17;;;;;;;0.63;0.40;;;18.70;99.90;;;;;;5084842;28;20200;-77
2023/04/30 05:32:51;;;;;;;0.40;0.30;;;18.70;99.90;;;;;;5109727;28;20188;-77
2023/04/30 05:35:22;;;;;;;0.15;0.15;;;18.60;99.90;;;;;;5082308;28;20250;-77
2023/04/30 05:37:53;;;;;;;0.25;0.20;;;18.70;99.90;;;;;;5073797;28;20189;-77
2023/04/30 05:40:26;;;;;;;0.47;0.20;;;18.80;99.90;;;;;;5089078;28;20203;-77
2023/04/30 05:42:57;;;;;;;0.60;0.30;;;18.90;99.90;;;;;;5094805;28;20231;-77
2023/04/30 05:45:28;;;;;;;0.20;0.20;;;19.00;99.90;;;;;;5089085;28;20199;-77
2023/04/30 05:48:01;;;;;;;0.20;0.20;;;19.00;99.90;;;;;;5090594;28;20196;-78
2023/04/30 05:50:32;;;;;;;0.20;0.20;;;19.00;99.90;;;;;;5089572;28;20200;-77
2023/04/30 05:53:03;;;;;;;0.20;0.20;;;19.00;99.90;;;;;;5080745;28;20590;-77
2023/04/30 05:55:35;;;;;;;0.28;0.20;;;18.90;99.90;;;;;;5082330;28;20212;-77
2023/04/30 05:58:06;;;;;;;1.02;0.25;;;19.00;99.90;;;;;;5075261;28;20199;-77
2023/04/30 06:00:37;;;;;;;0.45;0.30;;;19.00;99.90;;;;;;5079091;28;20206;-76
2023/04/30 06:03:10;;;;;;;0.38;0.20;;;19.00;99.90;;;;;;5079836;28;20262;-76
2023/04/30 06:05:41;;;;;;;0.20;0.20;;;19.00;99.90;;;;;;5087529;28;20199;-77
2023/04/30 06:08:12;;;;;;;0.32;0.10;;;19.00;99.90;;;;;;5074477;28;20213;-77
2023/04/30 06:10:44;;;;;;;0.30;0.30;;;19.00;99.90;;;;;;5073747;28;20197;-78
2023/04/30 06:13:15;;;;;;;0.40;0.30;;;19.00;99.90;;;;;;5073396;28;20201;-78
2023/04/30 06:15:46;;;;;;;1.77;0.38;;;19.00;99.90;;;;;;5090388;28;20200;-78
2023/04/30 06:18:19;;;;;;;1.00;0.25;;;18.90;99.90;;;;;;5092701;28;20245;-76
2023/04/30 06:20:50;;;;;;;0.30;0.20;;;18.90;99.90;;;;;;5093254;28;20192;-77
2023/04/30 06:23:22;;;;;;;0.57;0.30;;;18.80;99.90;;;;;;5086883;28;20212;-77
2023/04/30 06:25:53;;;;;;;0.22;0.22;;;18.80;99.90;;;;;;5080321;28;20199;-77
2023/04/30 06:28:24;;;;;;;0.63;0.32;;;18.70;99.90;;;;;;5093730;28;20189;-76
2023/04/30 06:30:55;;;;;;;0.32;0.20;;;18.60;99.90;;;;;;5086404;28;20556;-77
2023/04/30 06:33:28;;;;;;;0.63;0.20;;;18.50;99.90;;;;;;5090982;28;20196;-78
2023/04/30 06:35:59;;;;;;;0.22;0.20;;;18.40;99.90;;;;;;5081071;28;20568;-77
2023/04/30 06:38:30;;;;;;;0.57;0.40;;;18.40;99.90;;;;;;5087690;28;20591;-78
2023/04/30 06:41:01;;;;;;;0.47;0.30;;;18.30;99.90;;;;;;5072852;28;20196;-77
2023/04/30 06:43:32;;;;;;;0.60;0.40;;;18.30;99.90;;;;;;5072797;28;20225;-76
2023/04/30 06:46:03;;;;;;;1.10;0.40;;;18.20;99.90;;;;;;5073068;28;20196;-77
2023/04/30 06:48:36;;;;;;;0.80;0.50;;;18.20;99.90;;;;;;5080273;28;20205;-77
2023/04/30 06:51:08;;;;;;;0.57;0.35;;;18.20;99.90;;;;;;5083656;28;20201;-77
2023/04/30 06:53:39;;;;;;;1.08;0.45;;;18.10;99.90;;;;;;5076634;28;20201;-76
2023/04/30 06:56:10;;;;;;;0.50;0.50;;;18.00;99.90;;;;;;5073592;28;20196;-76
2023/04/30 06:58:41;;;;;;;0.70;0.52;;;18.00;99.90;;;;;;5078360;28;20192;-77
2023/04/30 07:01:12;;;;;;;0.65;0.50;;;17.90;99.90;;;;;;5068981;28;20227;-77
2023/04/30 07:03:45;;;;;;;0.80;0.60;;;17.90;99.90;;;;;;5074204;28;20210;-77
2023/04/30 07:06:16;;;;;;;1.58;0.60;;;17.90;99.90;;;;;;5079121;28;20204;-78
2023/04/30 07:08:47;;;;;;;0.93;0.60;;;17.90;99.90;;;;;;5076161;28;20201;-77
2023/04/30 07:11:18;;;;;;;1.85;0.70;;;17.80;99.90;;;;;;5094363;28;20200;-78
2023/04/30 07:13:49;;;;;;;2.13;0.60;;;17.80;99.90;;;;;;5077233;28;20821;-76
2023/04/30 07:16:21;;;;;;;0.40;0.40;;;17.90;99.90;;;;;;5093455;28;20250;-77
2023/04/30 07:18:54;;;;;;;0.60;0.50;;;17.80;99.90;;;;;;5080995;28;20204;-78
2023/04/30 07:21:26;;;;;;;0.50;0.50;;;17.80;99.90;;;;;;5092943;28;20206;-77
2023/04/30 07:23:57;;;;;;;0.60;0.40;;;17.80;99.90;;;;;;5088289;28;20188;-76
2023/04/30 07:26:28;;;;;;;3.22;0.50;;;17.80;99.90;;;;;;5079699;28;20193;-77
2023/04/30 07:28:59;;;;;;;0.65;0.47;;;17.80;99.90;;;;;;5085465;28;20196;-77
2023/04/30 07:31:32;;;;;;;0.40;0.40;;;17.80;99.90;;;;;;5080887;28;20192;-77
2023/04/30 07:34:05;;;;;;;1.00;0.60;;;17.70;99.90;;;;;;5083755;28;20197;-77
2023/04/30 07:36:37;;;;;;;1.30;0.63;;;17.70;99.90;;;;;;5075648;28;20200;-77
2023/04/30 07:39:10;;;;;;;0.77;0.60;;;17.70;99.90;;;;;;5075390;28;20219;-77
2023/04/30 07:41:41;;;;;;;0.90;0.57;;;17.70;99.90;;;;;;5077803;28;20197;-76
2023/04/30 07:44:12;;;;;;;0.75;0.47;;;17.70;99.90;;;;;;5078947;28;20200;-77
2023/04/30 07:46:43;;;;;;;1.95;0.60;;;17.70;99.90;;;;;;5084083;28;20301;-78
2023/04/30 07:49:16;;;;;;;1.05;0.60;;;17.60;99.90;;;;;;5088822;28;20211;-78
2023/04/30 07:51:47;;;;;;;1.50;0.60;;;17.60;99.90;;;;;;5085689;28;20205;-78
2023/04/30 07:54:18;;;;;;;1.63;0.70;;;17.60;99.90;;;;;;5082792;28;20193;-77
2023/04/30 07:56:50;;;;;;;1.50;1.02;;;17.60;99.90;;;;;;5087483;28;20208;-78
2023/04/30 07:59:23;;;;;;;1.30;0.70;;;17.50;99.90;;;;;;5083717;28;20196;-76
2023/04/30 08:01:54;;;;;;;1.33;0.90;;;17.50;99.90;;;;;;5093212;28;20289;-77
2023/04/30 08:04:27;;;;;;;1.00;0.70;;;17.50;99.90;;;;;;5092992;28;20648;-77
2023/04/30 08:06:58;;;;;;;1.38;0.80;;;17.50;99.90;;;;;;5095174;28;20188;-79
2023/04/30 08:09:29;;;;;;;1.02;0.80;;;17.50;99.90;;;;;;5091569;28;20204;-76
2023/04/30 08:12:00;;;;;;;0.73;0.70;;;17.50;99.90;;;;;;5094650;28;20193;-77
2023/04/30 08:14:32;;;;;;;1.00;0.77;;;17.40;99.90;;;;;;5092007;28;20200;-77
2023/04/30 08:17:03;;;;;;;2.10;1.00;;;17.30;99.90;;;;;;5074160;28;20189;-76
2023/04/30 08:19:36;;;;;;;1.27;0.82;;;17.30;99.90;;;;;;5075967;28;20242;-79
2023/04/30 08:22:07;;;;;;;1.88;1.10;;;17.30;99.90;;;;;;5094286;28;20212;-77
2023/04/30 08:24:38;;;;;;;1.42;0.90;;;17.30;99.90;;;;;;5076823;28;20588;-78
2023/04/30 08:27:09;;;;;;;2.78;1.20;;;17.30;99.90;;;;;;5089863;28;20235;-79
2023/04/30 08:29:40;;;;;;;1.17;1.08;;;17.20;99.90;;;;;;5089708;28;20201;-77
2023/04/30 08:32:11;;;;;;;1.90;1.08;;;17.20;99.90;;;;;;5094554;28;20188;-76
2023/04/30 08:34:45;;;;;;;2.03;0.90;;;17.10;99.90;;;;;;5094819;28;20192;-78
2023/04/30 08:37:16;;;;;;;1.52;0.90;;;17.10;99.90;;;;;;5103554;28;20188;-76
2023/04/30 08:39:47;;;;;;;1.13;0.80;;;17.00;99.90;;;;;;5094551;28;20192;-77
2023/04/30 08:42:20;;;;;;;2.17;0.88;;;17.00;99.90;;;;;;5094264;28;20216;-78
2023/04/30 08:44:51;;;;;;;1.67;1.10;;;16.90;99.90;;;;;;5094631;28;20184;-77
2023/04/30 08:47:24;;;;;;;1.48;1.10;;;16.90;99.90;;;;;;5078822;28;20205;-77
2023/04/30 08:49:57;;;;;;;1.77;1.10;;;16.90;99.90;;;;;;5089088;28;20636;-77
2023/04/30 08:52:30;;;;;;;1.85;1.10;;;16.80;99.90;;;;;;5089369;28;20250;-77
2023/04/30 08:55:03;;;;;;;1.10;1.00;;;16.80;99.90;;;;;;5083552;28;20602;-77
2023/04/30 08:57:34;;;;;;;1.85;1.25;;;16.70;99.90;;;;;;5079226;28;20568;-77
2023/04/30 09:00:06;;;;;;;1.85;1.10;;;16.70;99.90;;;;;;5090223;28;20199;-78
2023/04/30 09:02:40;;;;;;;1.25;0.98;;;16.60;99.90;;;;;;5090233;28;20267;-78
2023/04/30 09:05:15;;;;;;;1.70;1.17;;;16.50;99.90;;;;;;5080281;28;20199;-77
2023/04/30 09:07:47;;;;;;;1.20;0.93;;;16.50;99.90;;;;;;5089233;28;20686;-77
2023/04/30 09:10:18;;;;;;;1.10;1.00;;;16.50;99.90;;;;;;5087509;28;20197;-77
2023/04/30 09:13:01;;;;;;;1.50;1.10;;;16.50;99.90;;;;;;5085132;28;20230;-76
2023/04/30 09:15:34;;;;;;;1.63;1.20;;;16.50;99.90;;;;;;5081922;28;20612;-77
2023/04/30 09:18:16;;;;;;;2.33;1.50;;;16.40;99.90;;;;;;5093109;28;20199;-78
2023/04/30 09:21:04;;;;;;;2.22;1.20;;;16.40;99.90;;;;;;5082480;28;20199;-77
2023/04/30 09:23:35;;;;;;;2.83;1.30;;;16.40;99.90;;;;;;5083585;28;20278;-77
2023/04/30 09:26:06;;;;;;;2.45;1.50;;;16.30;99.90;;;;;;5085254;28;20204;-78
2023/04/30 09:28:37;;;;;;;3.85;1.10;;;16.30;99.90;;;;;;5077209;28;20575;-77
2023/04/30 09:31:22;;;;;;;1.63;1.25;;;16.20;99.90;;;;;;5091919;28;20196;-77
2023/04/30 09:33:53;;;;;;;3.15;1.27;;;16.20;99.90;;;;;;5090631;28;20658;-77
2023/04/30 09:36:26;;;;;;;1.95;1.02;;;16.10;99.90;;;;;;5084482;28;20204;-78
2023/04/30 09:38:57;;;;;;;1.30;1.10;;;16.10;99.90;;;;;;5083528;28;20554;-78
2023/04/30 09:41:29;;;;;;;2.85;1.40;;;16.10;99.90;;;;;;5086894;28;20196;-78
2023/04/30 09:44:00;;;;;;;2.25;1.30;;;16.00;99.90;;;;;;5088919;28;20235;-78
2023/04/30 09:46:35;;;;;;;1.85;1.10;;;16.00;99.90;;;;;;5090753;28;20211;-77
2023/04/30 09:49:07;;;;;;;1.30;1.20;;;16.00;99.90;;;;;;5086280;28;20583;-77
2023/04/30 09:51:57;;;;;;;1.92;1.00;;;16.00;99.90;;;;;;5080296;28;20223;-77
2023/04/30 09:54:30;;;;;;;2.83;1.40;;;16.00;99.90;;;;;;5082508;28;20714;-78
2023/04/30 09:57:02;;;;;;;1.92;1.30;;;15.90;99.90;;;;;;5093684;28;20196;-80
2023/04/30 09:59:36;;;;;;;2.20;1.38;;;15.90;99.90;;;;;;5092864;28;20203;-77
2023/04/30 10:02:08;;;;;;;2.13;1.60;;;15.90;99.90;;;;;;5076595;28;20231;-78
2023/04/30 10:04:40;;;;;;;2.28;1.40;;;15.90;99.90;;;;;;5082420;28;20215;-79
2023/04/30 10:07:17;;;;;;;2.28;1.42;;;15.90;99.90;;;;;;5093827;28;20200;-78
2023/04/30 10:09:52;;;;;;;2.28;1.13;;;15.90;99.90;;;;;;5087115;28;20215;-77
2023/04/30 10:12:27;;;;;;;3.58;1.77;;;15.80;99.90;;;;;;5087492;28;20196;-76
2023/04/30 10:15:03;;;;;;;2.55;1.52;;;15.80;99.90;;;;;;5082908;28;20231;-76
2023/04/30 10:17:39;;;;;;;2.25;1.15;;;15.80;99.90;;;;;;5093417;28;20651;-77
2023/04/30 10:20:14;;;;;;;1.75;0.98;;;15.80;99.90;;;;;;5080242;28;20203;-77
2023/04/30 10:22:48;;;;;;;1.05;0.80;;;15.80;99.90;;;;;;5073167;28;20230;-77
2023/04/30 10:25:21;;;;;;;1.30;0.90;;;15.80;99.90;;;;;;5085829;28;20191;-77
2023/04/30 10:27:53;;;;;;;1.77;0.80;;;15.70;99.90;;;;;;5083393;28;20200;-76
2023/04/30 10:30:25;;;;;;;1.10;0.75;;;15.70;99.90;;;;;;5084859;28;20200;-77
2023/04/30 10:33:03;;;;;;;1.13;0.95;;;15.70;99.90;;;;;;5072867;28;20200;-76
2023/04/30 10:35:43;;;;;;;1.77;0.82;;;15.60;99.90;;;;;;5087683;28;20200;-78
2023/04/30 10:38:23;;;;;;;1.73;1.00;;;15.60;99.90;;;;;;5086870;28;20199;-77
2023/04/30 10:40:58;;;;;;;1.88;1.08;;;15.50;99.90;;;;;;5090567;28;20656;-77
2023/04/30 10:43:31;;;;;;;1.80;1.30;;;15.50;99.90;;;;;;5094887;28;20215;-77
2023/04/30 10:46:03;;;;;;;2.17;1.17;;;15.50;99.90;;;;;;5092838;28;20200;-77
2023/04/30 10:48:36;;;;;;;1.80;1.33;;;15.50;99.90;;;;;;5083483;28;20196;-77
2023/04/30 10:51:10;;;;;;;1.77;1.17;;;15.40;99.90;;;;;;5094165;28;20522;-77
2023/04/30 10:53:47;;;;;;;1.92;1.40;;;15.40;99.90;;;;;;5090428;28;20242;-76
2023/04/30 10:56:32;;;;;;;2.17;1.20;;;15.30;99.90;;;;;;5094682;28;20196;-76
2023/04/30 10:59:04;;;;;;;1.85;1.17;;;15.30;99.90;;;;;;5089676;28;20656;-76
2023/04/30 11:01:55;;;;;;;1.30;1.20;;;15.30;99.90;;;;;;5096445;28;20224;-77
2023/04/30 11:04:26;;;;;;;1.90;1.08;;;15.30;99.90;;;;;;5092985;28;20234;-77
2023/04/30 11:07:14;;;;;;;1.20;1.00;;;15.20;99.90;;;;;;5100055;28;20202;-77
2023/04/30 11:09:51;;;;;;;3.08;0.93;;;15.20;99.90;;;;;;5083643;28;20561;-77
2023/04/30 11:12:27;;;;;;;2.00;1.10;;;15.20;99.90;;;;;;5091230;28;20199;-77
2023/04/30 11:15:07;;;;;;;2.00;1.10;;;15.20;99.90;;;;;;5089872;28;20231;-77
2023/04/30 11:17:39;;;;;;;1.77;0.93;;;15.10;99.90;;;;;;5094006;28;20211;-77
2023/04/30 11:20:13;;;;;;;1.00;0.90;;;15.10;99.90;;;;;;5089725;28;20203;-77
2023/04/30 11:22:46;;;;;;;1.65;0.85;;;15.00;99.90;;;;;;5082792;28;20191;-77
2023/04/30 11:25:22;;;;;;;1.00;0.77;;;15.00;99.90;;;;;;5094047;28;20219;-76
2023/04/30 11:27:53;;;;;;;2.65;0.90;;;14.90;99.90;;;;;;5083005;28;20654;-77
2023/04/30 11:30:25;;;;;;;2.35;0.90;;;14.90;99.90;;;;;;5091348;28;20196;-77
2023/04/30 11:32:56;;;;;;;1.90;1.20;;;14.90;99.90;;;;;;5082139;28;20193;-76
2023/04/30 11:35:28;;;;;;;1.33;1.00;;;14.80;99.90;;;;;;5094967;28;20196;-77
2023/04/30 11:38:01;;;;;;;1.27;1.05;;;14.70;99.90;;;;;;5082645;28;20201;-76
2023/04/30 11:40:38;;;;;;;0.80;0.80;;;14.70;99.90;;;;;;5086627;28;20197;-76
2023/04/30 11:43:10;;;;;;;2.25;1.00;;;14.70;99.90;;;;;;5085370;28;20216;-76
2023/04/30 11:45:42;;;;;;;1.67;1.00;;;14.70;99.90;;;;;;5091387;28;20195;-76
2023/04/30 11:48:16;;;;;;;1.30;0.93;;;14.70;99.90;;;;;;5092552;28;20203;-76
2023/04/30 11:50:47;;;;;;;1.30;0.80;;;14.60;99.90;;;;;;5083527;28;20201;-77
2023/04/30 11:53:18;;;;;;;1.58;1.00;;;14.60;99.90;;;;;;5075144;28;20592;-77
2023/04/30 11:55:51;;;;;;;1.10;0.85;;;14.60;99.90;;;;;;5073233;28;20200;-76
2023/04/30 11:58:23;;;;;;;1.05;0.90;;;14.60;99.90;;;;;;5074819;28;20207;-76
2023/04/30 12:00:54;;;;;;;1.20;1.10;;;14.60;99.90;;;;;;5093618;28;20196;-76
2023/04/30 12:03:26;;;;;;;2.15;1.20;;;14.60;99.90;;;;;;5095584;28;20242;-76
2023/04/30 12:05:57;;;;;;;1.92;1.30;;;14.60;99.90;;;;;;5075214;28;20193;-77
2023/04/30 12:08:28;;;;;;;2.50;1.80;;;14.50;99.90;;;;;;5075228;28;20193;-76
2023/04/30 12:11:01;;;;;;;2.55;1.70;;;14.50;99.90;;;;;;5073875;28;20208;-76
2023/04/30 12:13:34;;;;;;;2.97;1.73;;;14.50;99.90;;;;;;5081308;28;20208;-76
2023/04/30 12:16:06;;;;;;;3.38;2.42;;;14.50;99.90;;;;;;5087209;28;20200;-76
2023/04/30 12:18:37;;;;;;;2.47;2.13;;;14.50;99.90;;;;;;5095513;28;20200;-77
2023/04/30 12:21:08;;;;;;;3.53;2.33;;;14.50;99.90;;;;;;5091707;28;20219;-77
2023/04/30 12:23:39;;;;;;;2.88;2.20;;;14.50;99.90;;;;;;5085789;28;20703;-76
2023/04/30 12:26:12;;;;;;;2.70;2.10;;;14.40;99.90;;;;;;5089660;28;20204;-78
2023/04/30 12:28:43;;;;;;;3.17;2.10;;;14.30;99.90;;;;;;5075859;28;20572;-76
2023/04/30 12:31:15;;;;;;;2.58;1.73;;;14.30;99.90;;;;;;5077358;28;20199;-75
2023/04/30 12:33:46;;;;;;;2.75;1.90;;;14.30;99.90;;;;;;5097663;28;20206;-76
2023/04/30 12:36:17;;;;;;;2.22;1.42;;;14.20;99.90;;;;;;5094092;28;20683;-77
2023/04/30 12:38:48;;;;;;;2.67;1.73;;;14.20;99.90;;;;;;5082874;28;20216;-76
2023/04/30 12:41:21;;;;;;;2.10;1.70;;;14.20;99.90;;;;;;5079148;28;20207;-76
2023/04/30 12:43:52;;;;;;;2.85;1.63;;;14.10;99.90;;;;;;5077239;28;20225;-76
2023/04/30 12:46:29;;;;;;;2.28;1.50;;;14.10;99.90;;;;;;5087661;28;20198;-76
2023/04/30 12:49:01;;;;;;;2.42;1.42;;;14.10;99.90;;;;;;5086415;28;20192;-77
2023/04/30 12:51:34;;;;;;;1.50;1.17;;;14.10;99.90;;;;;;5094326;28;20216;-76
2023/04/30 12:54:06;;;;;;;2.53;1.25;;;14.00;99.90;;;;;;5094609;28;20184;-77
2023/04/30 12:56:39;;;;;;;1.85;1.20;;;14.00;99.90;;;;;;5073123;28;20185;-76
2023/04/30 12:59:18;;;;;;;1.85;1.35;;;13.90;99.90;;;;;;5073685;28;20641;-75
2023/04/30 13:01:49;;;;;;;1.67;1.20;;;13.90;99.90;;;;;;5083098;28;20665;-76
2023/04/30 13:04:20;;;;;;;2.22;1.60;;;14.00;99.90;;;;;;5106267;28;20211;-76
2023/04/30 13:06:52;;;;;;;1.85;1.20;;;14.00;99.90;;;;;;5094599;28;20188;-75
2023/04/30 13:09:23;;;;;;;4.57;1.50;;;14.00;99.90;;;;;;5093922;28;20196;-76
2023/04/30 13:11:56;;;;;;;2.15;1.40;;;14.00;99.90;;;;;;5094392;28;20257;-77
2023/04/30 13:14:28;;;;;;;2.75;1.50;;;14.00;99.90;;;;;;5098708;28;20246;-76
2023/04/30 13:17:01;;;;;;;2.75;1.42;;;14.10;99.90;;;;;;5098165;28;20659;-76